createdAt,value
2023-09-15T00:01:24.976Z,11.30
2023-09-15T00:03:55.737Z,14.43
2023-09-15T00:06:26.104Z,11.93
2023-09-15T00:08:56.705Z,10.38
2023-09-15T00:11:27.039Z,9.38
2023-09-15T00:13:57.596Z,13.45
2023-09-15T00:16:28.034Z,19.88
2023-09-15T00:18:58.581Z,12.10
2023-09-15T00:21:29.669Z,14.50
2023-09-15T00:24:00.057Z,17.92
2023-09-15T00:26:32.737Z,20.70
2023-09-15T00:29:07.572Z,18.58
2023-09-15T00:31:38.117Z,13.05
2023-09-15T00:34:08.853Z,12.98
2023-09-15T00:36:39.302Z,15.38
2023-09-15T00:39:09.921Z,15.45
2023-09-15T00:41:40.381Z,15.73
2023-09-15T00:44:10.798Z,14.23
2023-09-15T00:46:41.663Z,17.48
2023-09-15T00:49:12.190Z,21.75
2023-09-15T00:51:43.082Z,19.45
2023-09-15T00:54:15.432Z,19.05
2023-09-15T00:56:46.414Z,25.48
2023-09-15T00:59:17.286Z,28.25
2023-09-15T01:01:51.157Z,21.38
2023-09-15T01:04:23.035Z,24.13
2023-09-15T01:06:56.484Z,27.15
2023-09-15T01:09:28.774Z,27.30
2023-09-15T01:11:59.393Z,23.25
2023-09-15T01:14:29.768Z,25.88
2023-09-15T01:17:15.526Z,19.85
2023-09-15T01:19:56.787Z,25.83
2023-09-15T01:22:45.369Z,26.73
2023-09-15T01:25:44.568Z,27.25
2023-09-15T01:28:55.800Z,22.65
2023-09-15T01:31:28.421Z,28.65
2023-09-15T01:33:59.246Z,27.27
2023-09-15T01:36:29.665Z,20.17
2023-09-15T01:39:00.071Z,25.40
2023-09-15T01:41:30.526Z,24.85
2023-09-15T01:44:00.902Z,19.70
2023-09-15T01:46:32.289Z,26.73
2023-09-15T01:49:05.447Z,27.25
2023-09-15T01:51:36.322Z,23.63
2023-09-15T01:54:07.571Z,28.25
2023-09-15T01:56:38.427Z,22.17
2023-09-15T01:59:08.842Z,23.35
2023-09-15T02:01:39.462Z,23.35
2023-09-15T02:04:09.978Z,24.23
2023-09-15T02:06:40.466Z,25.80
2023-09-15T02:09:12.358Z,25.00
2023-09-15T02:11:42.838Z,27.27
2023-09-15T02:14:13.128Z,24.88
2023-09-15T02:16:45.718Z,21.98
2023-09-15T02:19:16.248Z,26.58
2023-09-15T02:21:46.728Z,28.52
2023-09-15T02:24:17.429Z,21.27
2023-09-15T02:26:48.389Z,19.92
2023-09-15T02:29:18.787Z,27.20
2023-09-15T02:31:49.154Z,27.75
2023-09-15T02:34:19.637Z,28.27
2023-09-15T02:36:50.206Z,24.33
2023-09-15T02:39:20.617Z,22.40
2023-09-15T02:41:51.248Z,28.58
2023-09-15T02:44:21.713Z,26.60
2023-09-15T02:46:52.117Z,27.67
2023-09-15T02:49:22.689Z,24.13
2023-09-15T02:51:55.802Z,28.42
2023-09-15T02:54:26.462Z,31.05
2023-09-15T02:56:56.862Z,30.40
2023-09-15T02:59:27.366Z,31.45
2023-09-15T03:01:57.774Z,25.65
2023-09-15T03:04:29.123Z,31.98
2023-09-15T03:06:59.649Z,28.42
2023-09-15T03:09:30.154Z,29.60
2023-09-15T03:12:03.796Z,30.33
2023-09-15T03:14:34.391Z,26.80
2023-09-15T03:17:06.967Z,25.48
2023-09-15T03:19:37.729Z,27.10
2023-09-15T03:22:10.059Z,31.73
2023-09-15T03:24:40.619Z,27.13
2023-09-15T03:27:10.936Z,32.78
2023-09-15T03:29:41.361Z,21.85
2023-09-15T03:32:11.701Z,21.65
2023-09-15T03:34:43.019Z,30.33
2023-09-15T03:37:14.418Z,29.70
2023-09-15T03:39:46.041Z,36.90
2023-09-15T03:42:16.996Z,28.67
2023-09-15T03:44:48.844Z,24.25
2023-09-15T03:47:21.577Z,31.02
2023-09-15T03:49:55.274Z,25.90
2023-09-15T03:52:29.913Z,27.05
2023-09-15T03:55:04.254Z,21.58
2023-09-15T03:57:34.936Z,30.20
2023-09-15T04:00:10.793Z,49.08
2023-09-15T04:02:42.295Z,30.52
2023-09-15T04:05:13.586Z,28.98
2023-09-15T04:07:50.341Z,29.63
2023-09-15T04:10:20.940Z,29.17
2023-09-15T04:12:51.549Z,26.50
2023-09-15T04:15:22.173Z,30.13
2023-09-15T04:17:52.535Z,32.90
2023-09-15T04:20:39.113Z,31.85
2023-09-15T04:25:09.762Z,25.88
2023-09-15T04:27:40.273Z,28.80
2023-09-15T04:30:11.290Z,31.80
2023-09-15T04:32:41.740Z,26.83
2023-09-15T04:35:13.044Z,22.92
2023-09-15T04:37:43.701Z,16.92
2023-09-15T04:40:14.272Z,22.85
2023-09-15T04:42:44.939Z,23.05
2023-09-15T04:45:15.277Z,15.68
2023-09-15T04:47:45.698Z,20.35
2023-09-15T04:50:16.012Z,17.17
2023-09-15T04:52:46.520Z,27.13
2023-09-15T04:55:16.778Z,22.80
2023-09-15T04:57:48.366Z,22.52
2023-09-15T05:00:26.547Z,27.05
2023-09-15T05:03:00.527Z,20.10
2023-09-15T05:05:31.954Z,22.95
2023-09-15T05:08:02.274Z,16.38
2023-09-15T05:10:32.574Z,16.27
2023-09-15T05:13:04.193Z,18.13
2023-09-15T05:15:34.532Z,16.15
2023-09-15T05:18:05.018Z,14.23
2023-09-15T05:20:35.379Z,15.63
2023-09-15T05:23:05.925Z,16.63
2023-09-15T05:25:36.328Z,15.63
2023-09-15T05:28:07.050Z,14.98
2023-09-15T05:30:37.386Z,13.18
2023-09-15T05:33:11.813Z,13.85
2023-09-15T05:35:42.295Z,15.75
2023-09-15T05:38:13.086Z,14.52
2023-09-15T05:40:43.313Z,13.90
2023-09-15T05:43:13.932Z,10.57
2023-09-15T05:45:44.255Z,17.02
2023-09-15T05:48:20.607Z,15.23
2023-09-15T05:50:51.618Z,14.43
2023-09-15T05:53:22.628Z,12.93
2023-09-15T05:55:52.890Z,16.30
2023-09-15T05:58:24.040Z,22.85
2023-09-15T06:00:57.874Z,17.35
2023-09-15T06:03:31.552Z,19.83
2023-09-15T06:06:01.932Z,14.35
2023-09-15T06:08:32.291Z,14.38
2023-09-15T06:11:03.538Z,12.70
2023-09-15T06:13:39.765Z,14.48
2023-09-15T06:16:11.312Z,11.25
2023-09-15T06:18:42.219Z,11.40
2023-09-15T06:21:12.432Z,15.75
2023-09-15T06:23:42.688Z,12.00
2023-09-15T06:26:12.996Z,14.48
2023-09-15T06:28:55.884Z,12.63
2023-09-15T06:31:28.175Z,12.45
2023-09-15T06:33:59.346Z,9.35
2023-09-15T06:36:29.882Z,12.20
2023-09-15T06:39:01.286Z,11.40
2023-09-15T06:41:32.157Z,12.27
2023-09-15T06:44:02.547Z,10.05
2023-09-15T06:46:32.720Z,10.98
2023-09-15T06:49:03.624Z,10.65
2023-09-15T06:51:35.929Z,11.98
2023-09-15T06:54:06.948Z,12.77
2023-09-15T06:56:37.508Z,13.13
2023-09-15T06:59:08.101Z,13.30
2023-09-15T07:01:43.786Z,13.10
2023-09-15T07:04:17.283Z,19.90
2023-09-15T07:06:48.131Z,12.68
2023-09-15T07:09:18.720Z,20.23
2023-09-15T07:11:49.115Z,12.48
2023-09-15T07:14:19.701Z,10.95
2023-09-15T07:16:51.574Z,11.75
2023-09-15T07:19:22.555Z,12.80
2023-09-15T07:21:53.451Z,10.48
2023-09-15T07:24:24.069Z,8.57
2023-09-15T07:26:54.608Z,8.63
2023-09-15T07:29:25.661Z,10.40
2023-09-15T07:31:56.339Z,8.20
2023-09-15T07:34:27.350Z,10.63
2023-09-15T07:36:57.927Z,11.40
2023-09-15T07:39:28.486Z,7.90
2023-09-15T07:41:59.014Z,10.13
2023-09-15T07:44:30.110Z,12.75
2023-09-15T07:47:01.942Z,12.88
2023-09-15T07:49:33.709Z,9.07
2023-09-15T07:52:04.453Z,8.05
2023-09-15T07:54:34.990Z,13.27
2023-09-15T07:57:06.719Z,8.65
2023-09-15T07:59:40.468Z,6.05
2023-09-15T08:02:21.412Z,9.85
2023-09-15T08:04:52.729Z,10.77
2023-09-15T08:07:23.402Z,9.25
2023-09-15T08:09:55.581Z,8.38
2023-09-15T08:12:26.724Z,6.88
2023-09-15T08:14:57.272Z,7.60
2023-09-15T08:17:33.564Z,6.38
2023-09-15T08:20:09.489Z,8.20
2023-09-15T08:22:44.906Z,7.95
2023-09-15T08:25:15.547Z,8.35
2023-09-15T08:27:49.940Z,9.80
2023-09-15T08:30:21.533Z,11.13
2023-09-15T08:32:58.364Z,8.98
2023-09-15T08:35:29.993Z,10.45
2023-09-15T08:38:04.696Z,9.27
2023-09-15T08:41:05.108Z,8.43
2023-09-15T08:43:47.918Z,7.25
2023-09-15T08:46:20.614Z,11.30
2023-09-15T08:48:54.918Z,6.18
2023-09-15T08:51:28.605Z,10.15
2023-09-15T08:54:02.653Z,6.10
2023-09-15T08:56:33.968Z,11.18
2023-09-15T08:59:06.969Z,8.13
2023-09-15T09:01:38.274Z,8.20
2023-09-15T09:04:21.424Z,9.82
2023-09-15T09:06:53.568Z,6.13
2023-09-15T09:09:26.351Z,9.30
2023-09-15T09:12:08.183Z,9.30
2023-09-15T09:14:40.107Z,7.18
2023-09-15T09:17:12.301Z,11.18
2023-09-15T09:19:49.485Z,7.95
2023-09-15T09:22:23.609Z,9.15
2023-09-15T09:25:02.055Z,6.88
2023-09-15T09:27:37.936Z,10.02
2023-09-15T09:30:10.386Z,17.10
2023-09-15T09:32:41.730Z,17.42
2023-09-15T09:35:16.363Z,17.73
2023-09-15T09:37:47.123Z,11.98
2023-09-15T09:40:18.310Z,11.45
2023-09-15T09:42:51.556Z,10.07
2023-09-15T09:45:28.690Z,14.57
2023-09-15T09:48:00.671Z,10.45
2023-09-15T09:50:31.309Z,11.65
2023-09-15T09:53:01.700Z,20.40
2023-09-15T09:55:32.365Z,19.08
2023-09-15T09:58:13.192Z,12.52
2023-09-15T10:00:43.726Z,19.05
2023-09-15T10:03:15.783Z,33.22
2023-09-15T10:05:46.629Z,25.23
2023-09-15T10:08:18.916Z,15.70
2023-09-15T10:10:53.155Z,19.45
2023-09-15T10:13:23.740Z,24.48
2023-09-15T10:15:56.776Z,16.02
2023-09-15T10:18:28.816Z,17.08
2023-09-15T10:21:00.666Z,23.10
2023-09-15T10:23:33.441Z,20.05
2023-09-15T10:26:10.138Z,16.02
2023-09-15T10:28:42.676Z,15.18
2023-09-15T10:31:27.029Z,16.70
2023-09-15T10:33:57.467Z,18.52
2023-09-15T10:36:30.307Z,11.40
2023-09-15T10:39:16.341Z,20.77
2023-09-15T10:41:48.029Z,17.27
2023-09-15T10:44:18.459Z,16.83
2023-09-15T10:46:48.865Z,17.55
2023-09-15T10:49:21.525Z,15.85
2023-09-15T10:52:03.329Z,19.08
2023-09-15T10:54:41.623Z,17.80
2023-09-15T10:57:12.794Z,17.67
2023-09-15T10:59:43.330Z,11.50
2023-09-15T11:02:14.373Z,13.20
2023-09-15T11:04:45.566Z,14.18
2023-09-15T11:07:20.016Z,13.30
2023-09-15T11:09:52.429Z,19.15
2023-09-15T11:12:22.955Z,21.08
2023-09-15T11:14:53.394Z,14.05
2023-09-15T11:17:23.725Z,18.27
2023-09-15T11:19:55.916Z,16.52
2023-09-15T11:22:26.938Z,10.55
2023-09-15T11:25:10.370Z,13.15
2023-09-15T11:27:45.254Z,7.75
2023-09-15T11:30:16.093Z,10.77
2023-09-15T11:32:46.716Z,12.70
2023-09-15T11:35:17.293Z,10.07
2023-09-15T11:37:48.454Z,9.43
2023-09-15T11:40:28.024Z,9.40
2023-09-15T11:42:59.336Z,12.75
2023-09-15T11:45:33.833Z,19.63
2023-09-15T11:48:07.418Z,11.35
2023-09-15T11:50:38.710Z,13.00
2023-09-15T11:53:09.319Z,17.05
2023-09-15T11:55:40.313Z,10.38
2023-09-15T11:58:11.039Z,15.80
2023-09-15T12:00:42.268Z,14.43
2023-09-15T12:03:12.819Z,17.65
2023-09-15T12:05:43.626Z,12.48
2023-09-15T12:08:16.243Z,26.63
2023-09-15T12:10:51.936Z,17.35
2023-09-15T12:13:28.428Z,13.52
2023-09-15T12:16:01.703Z,11.57
2023-09-15T12:18:32.370Z,15.63
2023-09-15T12:21:02.856Z,15.63
2023-09-15T12:23:33.175Z,12.38
2023-09-15T12:26:03.749Z,14.63
2023-09-15T12:28:35.922Z,19.17
2023-09-15T12:31:06.612Z,16.80
2023-09-15T12:33:41.638Z,13.40
2023-09-15T12:36:17.505Z,10.90
2023-09-15T12:38:47.790Z,11.13
2023-09-15T12:41:28.048Z,14.60
2023-09-15T12:43:58.391Z,12.32
2023-09-15T12:46:29.434Z,16.08
2023-09-15T12:48:59.828Z,8.90
2023-09-15T12:51:30.264Z,12.73
2023-09-15T12:54:00.680Z,14.90
2023-09-15T12:56:31.099Z,10.32
2023-09-15T12:59:03.288Z,16.48
2023-09-15T13:01:35.227Z,13.80
2023-09-15T13:04:07.408Z,16.55
2023-09-15T13:06:38.084Z,14.38
2023-09-15T13:09:08.561Z,15.13
2023-09-15T13:11:42.205Z,14.82
2023-09-15T13:14:12.636Z,16.15
2023-09-15T13:16:43.045Z,22.27
2023-09-15T13:19:14.533Z,22.65
2023-09-15T13:21:47.887Z,23.85
2023-09-15T13:24:18.532Z,22.52
2023-09-15T13:26:49.031Z,23.40
2023-09-15T13:29:19.416Z,24.48
2023-09-15T13:31:50.742Z,18.27
2023-09-15T13:34:22.142Z,19.50
2023-09-15T13:36:55.827Z,17.67
2023-09-15T13:39:26.563Z,22.98
2023-09-15T13:41:57.037Z,24.75
2023-09-15T13:44:27.450Z,22.27
2023-09-15T13:46:59.665Z,32.67
2023-09-15T13:49:30.094Z,16.40
2023-09-15T13:52:00.738Z,22.65
2023-09-15T13:54:31.163Z,20.80
2023-09-15T13:57:08.127Z,19.25
2023-09-15T13:59:41.394Z,17.13
2023-09-15T14:02:11.994Z,18.40
2023-09-15T14:04:43.937Z,18.00
2023-09-15T14:07:14.492Z,17.92
2023-09-15T14:09:45.049Z,12.63
2023-09-15T14:12:16.355Z,11.35
2023-09-15T14:14:47.098Z,16.15
2023-09-15T14:17:17.525Z,12.98
2023-09-15T14:19:47.932Z,16.60
2023-09-15T14:22:18.398Z,19.38
2023-09-15T14:24:49.143Z,15.85
2023-09-15T14:27:19.867Z,18.95
2023-09-15T14:29:50.631Z,18.30
2023-09-15T14:32:21.150Z,20.15
2023-09-15T14:34:51.663Z,14.48
2023-09-15T14:37:22.233Z,18.23
2023-09-15T14:39:52.597Z,22.40
2023-09-15T14:42:24.246Z,17.70
2023-09-15T14:44:54.656Z,22.15
2023-09-15T14:47:26.073Z,21.67
2023-09-15T14:49:57.583Z,25.08
2023-09-15T14:52:28.626Z,18.77
2023-09-15T14:54:59.025Z,21.27
2023-09-15T14:57:29.648Z,17.25
2023-09-15T15:00:04.115Z,16.98
2023-09-15T15:02:34.823Z,20.80
2023-09-15T15:05:05.332Z,20.50
2023-09-15T15:07:36.157Z,20.90
2023-09-15T15:10:06.762Z,24.45
2023-09-15T15:12:37.289Z,17.48
2023-09-15T15:15:08.216Z,20.58
2023-09-15T15:17:38.849Z,17.38
2023-09-15T15:20:10.433Z,28.70
2023-09-15T15:22:41.105Z,22.58
2023-09-15T15:25:11.842Z,25.10
2023-09-15T15:27:47.727Z,25.02
2023-09-15T15:30:18.844Z,22.23
2023-09-15T15:32:49.957Z,21.02
2023-09-15T15:35:22.742Z,19.05
2023-09-15T15:37:54.874Z,23.10
2023-09-15T15:40:25.246Z,27.10
2023-09-15T15:42:59.111Z,17.58
2023-09-15T15:45:29.545Z,17.88
2023-09-15T15:48:00.832Z,21.10
2023-09-15T15:50:32.382Z,25.60
2023-09-15T15:53:02.900Z,24.95
2023-09-15T15:55:34.577Z,21.38
2023-09-15T15:58:04.963Z,19.45
2023-09-15T16:00:36.109Z,18.48
2023-09-15T16:03:07.476Z,21.95
2023-09-15T16:05:38.208Z,17.70
2023-09-15T16:08:08.712Z,21.05
2023-09-15T16:10:40.029Z,17.05
2023-09-15T16:13:10.541Z,18.55
2023-09-15T16:15:40.964Z,16.70
2023-09-15T16:18:24.536Z,16.80
2023-09-15T16:21:00.791Z,14.32
2023-09-15T16:23:31.177Z,17.90
2023-09-15T16:26:01.602Z,13.10
2023-09-15T16:28:32.114Z,16.85
2023-09-15T16:31:02.601Z,17.33
2023-09-15T16:33:33.249Z,23.85
2023-09-15T16:36:05.864Z,20.45
2023-09-15T16:38:36.425Z,20.40
2023-09-15T16:41:06.828Z,15.80
2023-09-15T16:43:38.929Z,21.65
2023-09-15T16:46:09.468Z,16.02
2023-09-15T16:48:39.928Z,15.80
2023-09-15T16:51:11.108Z,17.27
2023-09-15T16:53:44.615Z,18.42
2023-09-15T16:56:16.548Z,17.65
2023-09-15T16:58:47.235Z,14.57
2023-09-15T17:01:18.080Z,16.30
2023-09-15T17:03:48.823Z,16.70
2023-09-15T17:06:19.693Z,16.10
2023-09-15T17:08:50.305Z,20.83
2023-09-15T17:11:22.370Z,10.88
2023-09-15T17:13:52.648Z,13.30
2023-09-15T17:16:24.139Z,14.55
2023-09-15T17:18:54.472Z,14.80
2023-09-15T17:21:25.504Z,10.20
2023-09-15T17:23:55.867Z,13.57
2023-09-15T17:26:26.225Z,9.02
2023-09-15T17:28:56.692Z,9.30
2023-09-15T17:31:28.891Z,11.73
2023-09-15T17:33:59.266Z,9.13
2023-09-15T17:36:29.734Z,14.45
2023-09-15T17:39:01.219Z,12.93
2023-09-15T17:41:31.614Z,9.80
2023-09-15T17:44:02.146Z,9.98
2023-09-15T17:46:32.682Z,9.13
2023-09-15T17:49:03.169Z,10.18
2023-09-15T17:51:33.669Z,8.70
2023-09-15T17:54:05.820Z,9.95
2023-09-15T17:56:36.795Z,9.32
2023-09-15T17:59:07.606Z,11.20
2023-09-15T18:01:38.400Z,9.50
2023-09-15T18:04:08.762Z,9.40
2023-09-15T18:06:42.546Z,9.95
2023-09-15T18:09:12.971Z,9.65
2023-09-15T18:11:43.718Z,9.80
2023-09-15T18:14:14.178Z,8.70
2023-09-15T18:16:47.729Z,20.27
2023-09-15T18:19:18.059Z,12.30
2023-09-15T18:21:48.480Z,8.52
2023-09-15T18:24:18.965Z,8.32
2023-09-15T18:26:49.524Z,7.97
2023-09-15T18:29:19.862Z,9.80
2023-09-15T18:31:50.230Z,6.05
2023-09-15T18:34:20.582Z,11.25
2023-09-15T18:36:51.021Z,10.65
2023-09-15T18:39:22.641Z,7.43
2023-09-15T18:41:53.074Z,7.63
2023-09-15T18:44:23.417Z,10.85
2023-09-15T18:46:54.804Z,14.13
2023-09-15T18:49:25.138Z,16.27
2023-09-15T18:51:56.490Z,11.35
2023-09-15T18:54:29.366Z,16.77
2023-09-15T18:57:00.023Z,15.35
2023-09-15T18:59:30.697Z,11.75
2023-09-15T19:02:01.145Z,7.93
2023-09-15T19:04:31.491Z,13.45
2023-09-15T19:07:02.628Z,10.77
2023-09-15T19:09:33.189Z,21.20
2023-09-15T19:12:03.594Z,12.93
2023-09-15T19:14:35.155Z,18.65
2023-09-15T19:17:05.613Z,9.98
2023-09-15T19:19:36.012Z,10.35
2023-09-15T19:22:06.636Z,13.23
2023-09-15T19:24:37.213Z,10.18
2023-09-15T19:27:07.921Z,10.32
2023-09-15T19:29:38.147Z,10.13
2023-09-15T19:32:08.721Z,7.25
2023-09-15T19:34:39.216Z,12.15
2023-09-15T19:37:09.742Z,12.73
2023-09-15T19:39:43.448Z,19.15
2023-09-15T19:42:13.986Z,11.35
2023-09-15T19:44:44.318Z,11.48
2023-09-15T19:47:16.273Z,12.68
2023-09-15T19:49:46.947Z,13.52
2023-09-15T19:52:17.541Z,12.85
2023-09-15T19:54:47.930Z,10.85
2023-09-15T19:57:19.704Z,10.48
2023-09-15T19:59:50.156Z,13.00
2023-09-15T20:02:20.641Z,11.18
2023-09-15T20:04:51.237Z,11.93
2023-09-15T20:07:21.677Z,9.70
2023-09-15T20:09:52.055Z,9.02
2023-09-15T20:12:22.509Z,11.10
2023-09-15T20:14:56.750Z,11.32
2023-09-15T20:17:29.962Z,12.27
2023-09-15T20:20:01.978Z,11.77
2023-09-15T20:22:32.351Z,12.10
2023-09-15T20:25:03.090Z,11.27
2023-09-15T20:27:34.589Z,13.48
2023-09-15T20:30:05.823Z,13.68
2023-09-15T20:32:36.247Z,13.65
2023-09-15T20:35:09.828Z,10.30
2023-09-15T20:37:40.201Z,11.35
2023-09-15T20:40:12.119Z,12.75
2023-09-15T20:42:42.474Z,10.68
2023-09-15T20:45:13.452Z,13.88
2023-09-15T20:47:44.585Z,19.67
2023-09-15T20:50:16.894Z,16.48
2023-09-15T20:52:47.412Z,16.45
2023-09-15T20:55:17.987Z,17.30
2023-09-15T20:57:48.924Z,15.57
2023-09-15T21:00:19.640Z,11.82
2023-09-15T21:02:50.487Z,12.95
2023-09-15T21:05:21.628Z,11.88
2023-09-15T21:07:51.883Z,12.57
2023-09-15T21:10:23.132Z,13.73
2023-09-15T21:12:53.987Z,13.02
2023-09-15T21:15:24.543Z,9.13
2023-09-15T21:17:55.103Z,13.82
2023-09-15T21:20:25.558Z,11.93
2023-09-15T21:22:57.126Z,10.70
2023-09-15T21:25:27.840Z,11.68
2023-09-15T21:27:58.203Z,16.10
2023-09-15T21:30:29.348Z,9.65
2023-09-15T21:32:59.764Z,11.57
2023-09-15T21:35:30.164Z,9.85
2023-09-15T21:38:05.325Z,8.63
2023-09-15T21:40:36.167Z,13.10
2023-09-15T21:43:08.429Z,6.22
2023-09-15T21:45:39.114Z,10.93
2023-09-15T21:48:09.782Z,8.80
2023-09-15T21:50:40.560Z,13.45
2023-09-15T21:53:11.192Z,8.15
2023-09-15T21:55:41.630Z,11.18
2023-09-15T21:58:12.257Z,11.18
2023-09-15T22:00:43.297Z,19.20
2023-09-15T22:03:13.985Z,18.42
2023-09-15T22:05:44.456Z,22.50
2023-09-15T22:08:15.014Z,20.98
2023-09-15T22:10:47.068Z,13.90
2023-09-15T22:13:19.638Z,17.65
2023-09-15T22:15:50.021Z,13.48
2023-09-15T22:18:20.501Z,14.05
2023-09-15T22:20:50.788Z,13.02
2023-09-15T22:23:21.771Z,12.68
2023-09-15T22:25:52.691Z,12.48
2023-09-15T22:28:24.976Z,11.50
2023-09-15T22:30:58.236Z,14.05
2023-09-15T22:33:30.733Z,12.77
2023-09-15T22:36:07.495Z,10.98
2023-09-15T22:38:39.415Z,15.07
2023-09-15T22:41:18.039Z,8.90
2023-09-15T22:43:49.471Z,14.65
2023-09-15T22:46:27.298Z,12.35
2023-09-15T22:48:57.923Z,11.20
2023-09-15T22:51:28.343Z,11.82
2023-09-15T22:53:58.966Z,12.38
2023-09-15T22:56:29.265Z,10.40
2023-09-15T22:58:59.740Z,11.93
2023-09-15T23:01:30.232Z,17.17
2023-09-15T23:04:00.736Z,11.98
2023-09-15T23:06:31.136Z,14.07
2023-09-15T23:09:02.699Z,18.33
2023-09-15T23:11:33.090Z,18.27
2023-09-15T23:14:05.104Z,16.55
2023-09-15T23:16:35.515Z,14.27
2023-09-15T23:19:06.093Z,17.75
2023-09-15T23:21:36.469Z,14.07
2023-09-15T23:24:07.077Z,14.70
2023-09-15T23:26:37.491Z,16.70
2023-09-15T23:29:08.073Z,17.35
2023-09-15T23:31:39.691Z,21.45
2023-09-15T23:34:11.320Z,26.73
2023-09-15T23:36:43.745Z,21.02
2023-09-15T23:39:17.430Z,25.55
2023-09-15T23:41:48.318Z,32.42
2023-09-15T23:44:18.820Z,25.45
2023-09-15T23:46:49.448Z,28.75
2023-09-15T23:49:23.005Z,30.20
2023-09-15T23:51:54.177Z,30.15
2023-09-15T23:54:30.266Z,32.30
2023-09-15T23:57:00.757Z,27.20
2023-09-15T23:59:31.271Z,29.95
